createdAt,value
2019-04-16T00:00:17.013Z,54.30
2019-04-16T00:00:48.208Z,54.30
2019-04-16T00:01:19.407Z,54.30
2019-04-16T00:01:50.619Z,54.30
2019-04-16T00:02:21.940Z,54.30
2019-04-16T00:02:53.231Z,54.30
2019-04-16T00:03:24.586Z,54.30
2019-04-16T00:03:55.797Z,54.40
2019-04-16T00:04:27.327Z,54.30
2019-04-16T00:04:58.600Z,54.30
2019-04-16T00:05:29.807Z,54.30
2019-04-16T00:06:01.485Z,54.30
2019-04-16T00:06:33.065Z,54.30
2019-04-16T00:07:04.252Z,54.40
2019-04-16T00:07:35.731Z,54.30
2019-04-16T00:08:19.448Z,54.30
2019-04-16T00:08:40.153Z,54.40
2019-04-16T00:09:11.331Z,54.40
2019-04-16T00:09:42.514Z,54.40
2019-04-16T00:10:14.068Z,54.40
2019-04-16T00:10:45.300Z,54.40
2019-04-16T00:11:16.550Z,54.40
2019-04-16T00:11:47.736Z,54.30
2019-04-16T00:12:18.922Z,54.30
2019-04-16T00:12:50.426Z,54.40
2019-04-16T00:13:21.606Z,54.30
2019-04-16T00:13:52.789Z,54.30
2019-04-16T00:14:23.974Z,54.30
2019-04-16T00:14:55.162Z,54.30
2019-04-16T00:15:26.471Z,55.00
2019-04-16T00:15:57.782Z,54.30
2019-04-16T00:16:29.262Z,54.30
2019-04-16T00:17:00.510Z,54.30
2019-04-16T00:17:32.118Z,54.40
2019-04-16T00:18:03.312Z,54.30
2019-04-16T00:18:34.495Z,54.30
2019-04-16T00:19:06.625Z,54.30
2019-04-16T00:19:38.132Z,54.30
2019-04-16T00:20:09.327Z,54.30
2019-04-16T00:20:40.538Z,54.30
2019-04-16T00:21:12.127Z,54.30
2019-04-16T00:21:43.318Z,54.30
2019-04-16T00:22:14.506Z,54.60
2019-04-16T00:22:45.701Z,54.40
2019-04-16T00:23:16.891Z,54.40
2019-04-16T00:23:48.118Z,54.40
2019-04-16T00:24:19.566Z,54.50
2019-04-16T00:24:50.875Z,54.50
2019-04-16T00:25:22.368Z,54.50
2019-04-16T00:25:55.504Z,54.50
2019-04-16T00:26:27.467Z,54.40
2019-04-16T00:26:59.962Z,54.50
2019-04-16T00:27:31.416Z,54.80
2019-04-16T00:28:02.794Z,54.50
2019-04-16T00:28:34.005Z,54.50
2019-04-16T00:29:05.500Z,54.50
2019-04-16T00:29:39.477Z,54.50
2019-04-16T00:30:09.645Z,55.20
2019-04-16T00:30:41.112Z,54.50
2019-04-16T00:31:12.300Z,54.50
2019-04-16T00:31:43.940Z,54.50
2019-04-16T00:32:15.191Z,54.50
2019-04-16T00:32:46.393Z,54.40
2019-04-16T00:33:17.579Z,54.40
2019-04-16T00:33:48.768Z,54.40
2019-04-16T00:34:19.950Z,54.50
2019-04-16T00:34:51.237Z,54.40
2019-04-16T00:35:22.503Z,55.10
2019-04-16T00:35:53.685Z,54.40
2019-04-16T00:36:24.916Z,54.40
2019-04-16T00:36:56.145Z,54.40
2019-04-16T00:37:27.346Z,54.40
2019-04-16T00:37:58.556Z,54.40
2019-04-16T00:38:40.118Z,54.40
2019-04-16T00:39:03.122Z,54.40
2019-04-16T00:39:34.313Z,54.40
2019-04-16T00:40:05.601Z,54.30
2019-04-16T00:40:36.855Z,54.40
2019-04-16T00:41:08.036Z,54.30
2019-04-16T00:41:39.559Z,54.30
2019-04-16T00:42:10.774Z,54.30
2019-04-16T00:42:41.947Z,54.30
2019-04-16T00:43:13.135Z,54.30
2019-04-16T00:43:44.378Z,54.20
2019-04-16T00:44:15.922Z,54.30
2019-04-16T00:44:47.478Z,54.30
2019-04-16T00:45:18.643Z,54.20
2019-04-16T00:45:50.164Z,54.30
2019-04-16T00:46:21.347Z,54.30
2019-04-16T00:46:52.564Z,54.30
2019-04-16T00:47:24.028Z,54.40
2019-04-16T00:47:55.214Z,54.30
2019-04-16T00:48:26.400Z,54.30
2019-04-16T00:48:57.714Z,54.30
2019-04-16T00:49:28.940Z,54.30
2019-04-16T00:50:00.525Z,54.30
2019-04-16T00:50:31.777Z,54.40
2019-04-16T00:51:03.378Z,54.30
2019-04-16T00:51:34.616Z,54.30
2019-04-16T00:52:06.743Z,54.30
2019-04-16T00:52:38.817Z,54.20
2019-04-16T00:53:10.010Z,54.20
2019-04-16T00:53:41.332Z,54.20
2019-04-16T00:54:12.581Z,54.20
2019-04-16T00:54:43.773Z,54.20
2019-04-16T00:55:14.954Z,54.20
2019-04-16T00:55:46.147Z,54.20
2019-04-16T00:56:17.330Z,54.30
2019-04-16T00:56:48.509Z,54.20
2019-04-16T00:57:19.701Z,54.30
2019-04-16T00:57:50.887Z,54.20
2019-04-16T00:58:22.088Z,54.30
2019-04-16T00:58:53.270Z,54.30
2019-04-16T00:59:24.932Z,54.30
2019-04-16T00:59:56.743Z,54.30
2019-04-16T01:00:30.642Z,54.20
2019-04-16T01:01:01.091Z,54.20
2019-04-16T01:01:32.278Z,54.30
2019-04-16T01:02:03.483Z,54.30
2019-04-16T01:02:34.663Z,54.40
2019-04-16T01:03:06.120Z,54.40
2019-04-16T01:03:37.307Z,54.50
2019-04-16T01:04:08.509Z,54.40
2019-04-16T01:04:39.696Z,54.40
2019-04-16T01:05:11.160Z,54.50
2019-04-16T01:05:43.500Z,54.60
2019-04-16T01:06:14.725Z,54.60
2019-04-16T01:06:45.919Z,54.50
2019-04-16T01:07:17.158Z,54.60
2019-04-16T01:07:48.348Z,54.50
2019-04-16T01:08:19.548Z,54.50
2019-04-16T01:08:54.811Z,54.50
2019-04-16T01:09:23.687Z,54.50
2019-04-16T01:09:54.870Z,54.40
2019-04-16T01:10:26.067Z,54.50
2019-04-16T01:10:57.246Z,54.40
2019-04-16T01:11:28.440Z,54.50
2019-04-16T01:11:59.718Z,54.50
2019-04-16T01:12:30.914Z,54.40
2019-04-16T01:13:02.105Z,54.50
2019-04-16T01:13:33.303Z,54.40
2019-04-16T01:14:04.538Z,54.40
2019-04-16T01:14:35.750Z,54.40
2019-04-16T01:15:07.077Z,54.40
2019-04-16T01:15:38.328Z,54.40
2019-04-16T01:16:09.520Z,54.40
2019-04-16T01:16:40.695Z,54.40
2019-04-16T01:17:11.874Z,54.40
2019-04-16T01:17:43.394Z,54.40
2019-04-16T01:18:14.936Z,54.40
2019-04-16T01:18:46.266Z,54.40
2019-04-16T01:19:17.486Z,54.50
2019-04-16T01:19:48.667Z,54.40
2019-04-16T01:20:20.095Z,54.40
2019-04-16T01:20:51.274Z,54.30
2019-04-16T01:21:22.463Z,54.40
2019-04-16T01:21:53.651Z,54.40
2019-04-16T01:22:25.047Z,54.40
2019-04-16T01:22:56.355Z,54.40
2019-04-16T01:23:27.530Z,54.30
2019-04-16T01:23:59.175Z,54.30
2019-04-16T01:24:30.470Z,54.30
2019-04-16T01:25:01.707Z,54.30
2019-04-16T01:25:33.214Z,54.20
2019-04-16T01:26:04.415Z,54.30
2019-04-16T01:26:35.598Z,54.30
2019-04-16T01:27:06.823Z,54.40
2019-04-16T01:27:38.444Z,54.30
2019-04-16T01:28:09.661Z,54.30
2019-04-16T01:28:40.874Z,54.30
2019-04-16T01:29:12.449Z,54.40
2019-04-16T01:29:43.800Z,54.30
2019-04-16T01:30:15.008Z,54.20
2019-04-16T01:30:46.518Z,54.20
2019-04-16T01:31:17.692Z,54.20
2019-04-16T01:31:48.874Z,54.20
2019-04-16T01:32:20.064Z,54.20
2019-04-16T01:32:51.242Z,54.20
2019-04-16T01:33:22.437Z,54.10
2019-04-16T01:33:53.680Z,54.20
2019-04-16T01:34:24.873Z,54.20
2019-04-16T01:34:56.517Z,54.10
2019-04-16T01:35:27.734Z,54.20
2019-04-16T01:35:58.921Z,54.20
2019-04-16T01:36:30.154Z,54.30
2019-04-16T01:37:01.413Z,54.20
2019-04-16T01:37:32.601Z,54.20
2019-04-16T01:38:03.798Z,54.20
2019-04-16T01:38:35.156Z,54.10
2019-04-16T01:39:15.929Z,54.20
2019-04-16T01:39:39.272Z,54.20
2019-04-16T01:40:10.449Z,54.20
2019-04-16T01:40:41.650Z,54.20
2019-04-16T01:41:12.853Z,54.20
2019-04-16T01:41:44.159Z,54.20
2019-04-16T01:42:15.352Z,54.20
2019-04-16T01:42:46.534Z,54.30
2019-04-16T01:43:17.703Z,54.20
2019-04-16T01:43:49.216Z,54.30
2019-04-16T01:44:20.402Z,54.20
2019-04-16T01:44:51.722Z,54.20
2019-04-16T01:45:22.928Z,54.90
2019-04-16T01:45:54.106Z,54.40
2019-04-16T01:46:25.679Z,54.40
2019-04-16T01:46:56.863Z,55.00
2019-04-16T01:47:28.039Z,54.40
2019-04-16T01:47:59.227Z,54.40
2019-04-16T01:48:30.707Z,54.40
2019-04-16T01:49:01.889Z,54.40
2019-04-16T01:49:33.076Z,54.40
2019-04-16T01:50:04.284Z,54.40
2019-04-16T01:50:35.522Z,54.40
2019-04-16T01:51:06.713Z,54.40
2019-04-16T01:51:38.001Z,54.30
2019-04-16T01:52:09.352Z,54.40
2019-04-16T01:52:40.539Z,54.50
2019-04-16T01:53:12.016Z,54.40
2019-04-16T01:53:43.260Z,55.10
2019-04-16T01:54:14.518Z,54.50
2019-04-16T01:54:45.724Z,54.40
2019-04-16T01:55:16.914Z,54.30
2019-04-16T01:55:48.094Z,54.30
2019-04-16T01:56:19.613Z,54.40
2019-04-16T01:56:50.796Z,54.30
2019-04-16T01:57:22.252Z,54.30
2019-04-16T01:57:53.463Z,54.20
2019-04-16T01:58:24.718Z,54.30
2019-04-16T01:58:55.928Z,54.20
2019-04-16T01:59:27.138Z,54.30
2019-04-16T01:59:58.768Z,54.20
2019-04-16T02:00:30.012Z,54.30
2019-04-16T02:01:01.198Z,54.30
2019-04-16T02:01:32.410Z,54.20
2019-04-16T02:02:03.997Z,54.20
2019-04-16T02:02:35.420Z,54.60
2019-04-16T02:03:07.058Z,54.70
2019-04-16T02:03:38.604Z,54.80
2019-04-16T02:04:09.791Z,54.10
2019-04-16T02:04:40.981Z,54.10
2019-04-16T02:05:12.203Z,54.10
2019-04-16T02:05:43.399Z,54.10
2019-04-16T02:06:14.591Z,54.10
2019-04-16T02:06:46.117Z,54.20
2019-04-16T02:07:19.192Z,54.10
2019-04-16T02:07:50.384Z,54.10
2019-04-16T02:08:21.615Z,54.00
2019-04-16T02:08:53.173Z,54.10
2019-04-16T02:09:24.353Z,54.10
2019-04-16T02:09:55.811Z,54.00
2019-04-16T02:10:27.033Z,54.00
2019-04-16T02:10:58.216Z,54.10
2019-04-16T02:11:29.404Z,54.00
2019-04-16T02:12:00.584Z,54.00
2019-04-16T02:12:32.131Z,54.00
2019-04-16T02:13:03.407Z,54.00
2019-04-16T02:13:34.588Z,54.00
2019-04-16T02:14:05.776Z,54.00
2019-04-16T02:14:36.969Z,54.00
2019-04-16T02:15:08.467Z,54.10
2019-04-16T02:15:40.011Z,54.00
2019-04-16T02:16:11.272Z,54.00
2019-04-16T02:16:42.477Z,54.00
2019-04-16T02:17:13.725Z,54.00
2019-04-16T02:17:45.249Z,54.00
2019-04-16T02:18:16.429Z,54.00
2019-04-16T02:18:47.614Z,54.00
2019-04-16T02:19:18.813Z,54.00
2019-04-16T02:19:50.058Z,54.00
2019-04-16T02:20:21.270Z,54.00
2019-04-16T02:20:52.454Z,54.00
2019-04-16T02:21:23.662Z,54.00
2019-04-16T02:21:54.858Z,54.00
2019-04-16T02:22:26.389Z,54.00
2019-04-16T02:22:57.620Z,54.10
2019-04-16T02:23:28.933Z,54.10
2019-04-16T02:24:00.455Z,54.20
2019-04-16T02:24:31.656Z,54.20
2019-04-16T02:25:02.834Z,54.20
2019-04-16T02:25:34.025Z,54.30
2019-04-16T02:26:05.181Z,54.30
2019-04-16T02:26:36.399Z,54.30
2019-04-16T02:27:07.595Z,54.30
2019-04-16T02:27:38.780Z,54.30
2019-04-16T02:28:10.095Z,54.30
2019-04-16T02:28:41.361Z,54.30
2019-04-16T02:29:12.544Z,54.30
2019-04-16T02:29:43.725Z,54.30
2019-04-16T02:30:15.225Z,54.40
2019-04-16T02:30:46.420Z,54.30
2019-04-16T02:31:17.591Z,54.20
2019-04-16T02:31:51.522Z,54.30
2019-04-16T02:32:21.718Z,54.30
2019-04-16T02:32:53.029Z,54.30
2019-04-16T02:33:24.289Z,54.40
2019-04-16T02:33:55.808Z,54.40
2019-04-16T02:34:26.999Z,54.40
2019-04-16T02:34:58.173Z,54.40
2019-04-16T02:35:29.361Z,54.30
2019-04-16T02:36:00.619Z,54.30
2019-04-16T02:36:31.899Z,54.30
2019-04-16T02:37:03.584Z,54.30
2019-04-16T02:37:36.582Z,54.30
2019-04-16T02:38:12.228Z,54.20
2019-04-16T02:38:46.338Z,54.20
2019-04-16T02:39:14.118Z,54.20
2019-04-16T02:39:48.339Z,54.10
2019-04-16T02:40:18.917Z,54.10
2019-04-16T02:40:52.909Z,54.10
2019-04-16T02:41:24.728Z,54.10
2019-04-16T02:41:58.182Z,54.20
2019-04-16T02:42:32.028Z,54.10
2019-04-16T02:43:06.496Z,54.10
2019-04-16T02:43:39.745Z,54.10
2019-04-16T02:44:14.161Z,54.10
2019-04-16T02:44:41.037Z,54.20
2019-04-16T02:45:12.575Z,54.10
2019-04-16T02:45:43.763Z,54.00
2019-04-16T02:46:14.939Z,54.00
2019-04-16T02:46:46.120Z,54.00
2019-04-16T02:47:17.613Z,54.00
2019-04-16T02:47:48.821Z,54.00
2019-04-16T02:48:20.119Z,54.00
2019-04-16T02:48:51.802Z,54.00
2019-04-16T02:49:24.891Z,54.00
2019-04-16T02:49:57.765Z,53.80
2019-04-16T02:50:31.893Z,53.90
2019-04-16T02:51:07.406Z,53.90
2019-04-16T02:51:39.592Z,54.00
2019-04-16T02:52:15.281Z,54.60
2019-04-16T02:52:41.221Z,53.90
2019-04-16T02:53:12.672Z,53.90
2019-04-16T02:53:43.943Z,53.90
2019-04-16T02:54:15.122Z,53.90
2019-04-16T02:54:46.317Z,54.00
2019-04-16T02:55:17.489Z,53.90
2019-04-16T02:55:48.670Z,54.00
2019-04-16T02:56:19.885Z,53.90
2019-04-16T02:56:52.017Z,54.00
2019-04-16T02:57:26.660Z,54.60
2019-04-16T02:57:59.998Z,54.00
2019-04-16T02:58:34.007Z,54.00
2019-04-16T02:59:09.651Z,54.00
2019-04-16T02:59:36.059Z,54.00
2019-04-16T03:00:07.253Z,53.90
2019-04-16T03:00:38.471Z,53.90
2019-04-16T03:01:09.702Z,54.00
2019-04-16T03:01:40.894Z,54.00
2019-04-16T03:02:12.086Z,54.00
2019-04-16T03:02:43.290Z,54.00
2019-04-16T03:03:14.509Z,54.00
2019-04-16T03:03:45.722Z,54.00
2019-04-16T03:04:16.910Z,53.90
2019-04-16T03:04:48.094Z,53.90
2019-04-16T03:05:19.608Z,53.90
2019-04-16T03:05:50.799Z,54.00
2019-04-16T03:06:22.011Z,54.00
2019-04-16T03:06:53.515Z,54.00
2019-04-16T03:07:24.737Z,54.00
2019-04-16T03:07:55.910Z,54.00
2019-04-16T03:08:27.167Z,54.00
2019-04-16T03:08:58.343Z,54.00
2019-04-16T03:09:29.520Z,54.70
2019-04-16T03:10:01.960Z,54.10
2019-04-16T03:10:34.044Z,54.20
2019-04-16T03:11:05.224Z,54.50
2019-04-16T03:11:36.420Z,54.20
2019-04-16T03:12:07.591Z,54.20
2019-04-16T03:12:38.798Z,54.20
2019-04-16T03:13:10.020Z,54.20
2019-04-16T03:13:41.569Z,54.30
2019-04-16T03:14:12.784Z,54.20
2019-04-16T03:14:43.971Z,54.20
2019-04-16T03:15:15.186Z,54.20
2019-04-16T03:15:46.367Z,54.10
2019-04-16T03:16:17.913Z,54.00
2019-04-16T03:16:49.097Z,54.00
2019-04-16T03:17:20.278Z,54.00
2019-04-16T03:17:51.466Z,54.00
2019-04-16T03:18:22.656Z,54.00
2019-04-16T03:18:54.191Z,54.00
2019-04-16T03:19:25.376Z,53.90
2019-04-16T03:19:56.554Z,53.90
2019-04-16T03:20:28.087Z,53.60
2019-04-16T03:20:59.294Z,53.90
2019-04-16T03:21:30.508Z,53.80
2019-04-16T03:22:02.869Z,53.90
2019-04-16T03:22:34.516Z,53.80
2019-04-16T03:23:06.688Z,53.80
2019-04-16T03:23:38.194Z,53.90
2019-04-16T03:24:09.975Z,53.80
2019-04-16T03:24:41.346Z,53.80
2019-04-16T03:25:14.114Z,53.80
2019-04-16T03:25:45.743Z,53.80
2019-04-16T03:26:18.208Z,53.80
2019-04-16T03:26:50.427Z,53.80
2019-04-16T03:27:23.022Z,53.70
2019-04-16T03:27:55.094Z,53.80
2019-04-16T03:28:27.180Z,53.90
2019-04-16T03:28:59.570Z,53.80
2019-04-16T03:29:31.226Z,53.70
2019-04-16T03:30:03.349Z,53.80
2019-04-16T03:30:40.895Z,53.70
2019-04-16T03:31:09.634Z,53.80
2019-04-16T03:31:41.415Z,53.80
2019-04-16T03:32:14.867Z,53.80
2019-04-16T03:32:45.498Z,53.80
2019-04-16T03:33:16.799Z,53.90
2019-04-16T03:33:50.455Z,53.80
2019-04-16T03:34:22.029Z,53.80
2019-04-16T03:34:54.173Z,53.80
2019-04-16T03:35:26.685Z,53.80
2019-04-16T03:35:58.628Z,53.90
2019-04-16T03:36:30.333Z,53.80
2019-04-16T03:37:02.095Z,53.80
2019-04-16T03:37:34.295Z,53.80
2019-04-16T03:38:06.435Z,53.80
2019-04-16T03:38:41.900Z,53.80
2019-04-16T03:39:13.586Z,53.90
2019-04-16T03:39:45.012Z,53.80
2019-04-16T03:40:18.707Z,53.90
2019-04-16T03:40:49.210Z,53.80
2019-04-16T03:41:20.751Z,54.50
2019-04-16T03:41:55.970Z,53.90
2019-04-16T03:42:27.393Z,53.90
2019-04-16T03:42:59.268Z,53.90
2019-04-16T03:43:32.791Z,53.90
2019-04-16T03:44:04.992Z,53.80
2019-04-16T03:44:37.358Z,53.80
2019-04-16T03:45:09.837Z,53.90
2019-04-16T03:45:41.545Z,53.90
2019-04-16T03:46:14.134Z,53.90
2019-04-16T03:46:46.795Z,53.90
2019-04-16T03:47:19.207Z,53.90
2019-04-16T03:47:52.309Z,53.90
2019-04-16T03:48:24.485Z,54.00
2019-04-16T03:48:56.483Z,54.00
2019-04-16T03:49:28.489Z,54.10
2019-04-16T03:50:00.228Z,54.10
2019-04-16T03:50:32.225Z,54.20
2019-04-16T03:51:04.431Z,54.20
2019-04-16T03:51:36.583Z,54.20
2019-04-16T03:52:09.288Z,54.20
2019-04-16T03:52:45.491Z,54.30
2019-04-16T03:53:17.523Z,54.10
2019-04-16T03:53:49.573Z,54.10
2019-04-16T03:54:22.292Z,54.20
2019-04-16T03:54:54.142Z,54.00
2019-04-16T03:55:26.542Z,54.00
2019-04-16T03:55:58.504Z,54.00
2019-04-16T03:56:31.145Z,54.00
2019-04-16T03:57:02.862Z,53.90
2019-04-16T03:57:34.403Z,53.90
2019-04-16T03:58:07.112Z,53.80
2019-04-16T03:58:39.403Z,53.90
2019-04-16T03:59:12.054Z,53.90
2019-04-16T03:59:44.138Z,53.80
2019-04-16T04:00:15.366Z,53.80
2019-04-16T04:00:46.614Z,53.80
2019-04-16T04:01:18.326Z,53.80
2019-04-16T04:01:49.514Z,53.80
2019-04-16T04:02:22.898Z,53.70
2019-04-16T04:02:55.194Z,53.70
2019-04-16T04:03:26.957Z,53.70
2019-04-16T04:03:58.473Z,53.80
2019-04-16T04:04:30.077Z,54.40
2019-04-16T04:05:06.087Z,53.70
2019-04-16T04:05:35.716Z,53.70
2019-04-16T04:06:08.333Z,53.70
2019-04-16T04:06:40.598Z,53.70
2019-04-16T04:07:13.320Z,53.60
2019-04-16T04:07:45.189Z,53.70
2019-04-16T04:08:17.928Z,53.70
2019-04-16T04:08:53.104Z,53.60
2019-04-16T04:09:22.967Z,53.60
2019-04-16T04:09:55.169Z,53.60
2019-04-16T04:10:30.682Z,53.60
2019-04-16T04:10:59.759Z,53.60
2019-04-16T04:11:31.105Z,53.60
2019-04-16T04:12:02.288Z,53.60
2019-04-16T04:12:33.468Z,53.60
2019-04-16T04:13:05.119Z,53.60
2019-04-16T04:13:36.759Z,53.60
2019-04-16T04:14:08.314Z,53.70
2019-04-16T04:14:39.573Z,53.70
2019-04-16T04:15:10.936Z,53.60
2019-04-16T04:15:42.229Z,53.60
2019-04-16T04:16:13.425Z,53.70
2019-04-16T04:16:44.987Z,53.60
2019-04-16T04:17:16.373Z,53.60
2019-04-16T04:17:47.657Z,53.60
2019-04-16T04:18:18.858Z,53.60
2019-04-16T04:18:50.124Z,53.60
2019-04-16T04:19:21.312Z,53.60
2019-04-16T04:19:52.528Z,53.60
2019-04-16T04:20:23.714Z,53.60
2019-04-16T04:20:54.921Z,53.30
2019-04-16T04:21:26.458Z,53.60
2019-04-16T04:21:57.638Z,53.50
2019-04-16T04:22:28.833Z,53.60
2019-04-16T04:23:00.371Z,53.50
2019-04-16T04:23:31.557Z,53.50
2019-04-16T04:24:02.764Z,53.50
2019-04-16T04:24:34.024Z,53.50
2019-04-16T04:25:05.288Z,53.50
2019-04-16T04:25:37.095Z,53.60
2019-04-16T04:26:10.068Z,53.60
2019-04-16T04:26:42.358Z,53.60
2019-04-16T04:27:18.190Z,53.60
2019-04-16T04:27:47.718Z,53.60
2019-04-16T04:28:20.570Z,53.80
2019-04-16T04:28:52.649Z,53.80
2019-04-16T04:29:24.989Z,53.70
2019-04-16T04:29:57.277Z,53.80
2019-04-16T04:30:29.545Z,53.80
2019-04-16T04:31:01.973Z,53.70
2019-04-16T04:31:33.333Z,53.70
2019-04-16T04:32:04.509Z,53.70
2019-04-16T04:32:36.268Z,53.70
2019-04-16T04:33:09.668Z,53.70
2019-04-16T04:33:42.561Z,53.70
2019-04-16T04:34:15.364Z,53.70
2019-04-16T04:34:48.823Z,53.80
2019-04-16T04:35:22.050Z,53.70
2019-04-16T04:35:52.544Z,53.70
2019-04-16T04:36:26.982Z,53.70
2019-04-16T04:36:59.902Z,53.80
2019-04-16T04:38:04.181Z,53.70
2019-04-16T04:38:37.541Z,53.70
2019-04-16T04:39:09.947Z,53.80
2019-04-16T04:39:43.633Z,53.70
2019-04-16T04:40:16.131Z,53.70
2019-04-16T04:40:50.505Z,53.70
2019-04-16T04:41:23.408Z,53.70
2019-04-16T04:41:56.500Z,53.70
2019-04-16T04:42:28.405Z,53.60
2019-04-16T04:43:00.791Z,53.60
2019-04-16T04:43:10.021Z,53.70
2019-04-16T04:43:32.734Z,53.60
2019-04-16T04:44:04.400Z,53.60
2019-04-16T04:44:37.158Z,53.60
2019-04-16T04:45:09.977Z,53.60
2019-04-16T04:45:41.550Z,53.60
2019-04-16T04:46:15.048Z,53.60
2019-04-16T04:46:46.138Z,53.60
2019-04-16T04:47:19.936Z,53.60
2019-04-16T04:47:51.727Z,53.60
2019-04-16T04:48:24.362Z,53.60
2019-04-16T04:48:59.936Z,53.60
2019-04-16T04:49:30.358Z,53.60
2019-04-16T04:50:03.322Z,53.60
2019-04-16T04:50:35.447Z,53.60
2019-04-16T04:51:08.450Z,53.60
2019-04-16T04:51:43.429Z,53.50
2019-04-16T04:52:14.638Z,53.50
2019-04-16T04:52:46.091Z,53.50
2019-04-16T04:53:19.585Z,53.60
2019-04-16T04:53:51.326Z,53.50
2019-04-16T04:54:23.503Z,53.50
2019-04-16T04:54:54.894Z,53.10
2019-04-16T04:55:27.034Z,53.50
2019-04-16T04:55:58.356Z,53.50
2019-04-16T04:56:29.551Z,53.40
2019-04-16T04:57:00.729Z,53.50
2019-04-16T04:57:32.064Z,53.50
2019-04-16T04:58:03.489Z,53.50
2019-04-16T04:58:34.906Z,53.50
2019-04-16T04:59:06.287Z,53.50
2019-04-16T04:59:37.588Z,53.60
2019-04-16T05:00:09.553Z,53.60
2019-04-16T05:00:41.187Z,53.50
2019-04-16T05:01:14.076Z,53.60
2019-04-16T05:01:45.887Z,53.50
2019-04-16T05:02:17.120Z,53.50
2019-04-16T05:02:48.450Z,53.50
2019-04-16T05:03:19.657Z,53.50
2019-04-16T05:03:51.150Z,53.50
2019-04-16T05:04:22.342Z,53.50
2019-04-16T05:04:54.430Z,53.40
2019-04-16T05:05:25.936Z,53.50
2019-04-16T05:05:57.342Z,53.40
2019-04-16T05:06:28.649Z,53.50
2019-04-16T05:06:59.877Z,53.40
2019-04-16T05:07:31.473Z,53.60
2019-04-16T05:08:02.799Z,53.50
2019-04-16T05:08:33.979Z,53.60
2019-04-16T05:09:05.591Z,53.60
2019-04-16T05:09:36.922Z,53.50
2019-04-16T05:10:08.437Z,53.50
2019-04-16T05:10:42.856Z,53.60
2019-04-16T05:11:15.818Z,53.60
2019-04-16T05:11:48.490Z,53.60
2019-04-16T05:12:21.347Z,53.60
2019-04-16T05:12:53.583Z,53.70
2019-04-16T05:13:25.305Z,53.70
2019-04-16T05:13:57.134Z,53.70
2019-04-16T05:14:28.505Z,53.70
2019-04-16T05:14:59.696Z,53.70
2019-04-16T05:15:30.949Z,53.70
2019-04-16T05:16:02.779Z,53.70
2019-04-16T05:16:35.027Z,53.70
2019-04-16T05:17:07.462Z,53.70
2019-04-16T05:17:39.357Z,53.80
2019-04-16T05:18:10.991Z,53.80
2019-04-16T05:18:42.700Z,53.60
2019-04-16T05:19:15.522Z,53.80
2019-04-16T05:19:47.044Z,53.80
2019-04-16T05:20:18.325Z,53.70
2019-04-16T05:20:49.816Z,53.70
2019-04-16T05:21:21.079Z,53.70
2019-04-16T05:21:52.699Z,54.30
2019-04-16T05:22:24.052Z,53.70
2019-04-16T05:22:57.930Z,53.70
2019-04-16T05:23:28.418Z,53.60
2019-04-16T05:23:59.613Z,53.50
2019-04-16T05:24:30.882Z,53.50
2019-04-16T05:25:02.509Z,53.50
2019-04-16T05:25:34.480Z,53.60
2019-04-16T05:26:05.854Z,53.40
2019-04-16T05:26:37.284Z,53.50
2019-04-16T05:27:09.441Z,53.50
2019-04-16T05:27:41.563Z,53.50
2019-04-16T05:28:13.444Z,53.50
2019-04-16T05:28:45.651Z,53.40
2019-04-16T05:29:18.593Z,53.40
2019-04-16T05:29:50.022Z,53.40
2019-04-16T05:30:22.136Z,53.40
2019-04-16T05:30:53.519Z,53.40
2019-04-16T05:31:26.123Z,53.40
2019-04-16T05:31:58.423Z,53.40
2019-04-16T05:32:33.996Z,53.40
2019-04-16T05:33:05.582Z,53.50
2019-04-16T05:33:37.346Z,53.50
2019-04-16T05:34:08.549Z,53.50
2019-04-16T05:34:40.078Z,53.50
2019-04-16T05:35:11.400Z,53.50
2019-04-16T05:35:42.581Z,53.50
2019-04-16T05:36:15.138Z,53.50
2019-04-16T05:36:48.037Z,53.40
2019-04-16T05:37:20.799Z,53.40
2019-04-16T05:37:52.336Z,53.40
2019-04-16T05:38:24.702Z,53.30
2019-04-16T05:38:56.413Z,53.30
2019-04-16T05:39:28.560Z,53.30
2019-04-16T05:39:59.954Z,53.30
2019-04-16T05:40:34.222Z,53.40
2019-04-16T05:41:13.296Z,53.40
2019-04-16T05:41:37.095Z,53.30
2019-04-16T05:42:08.355Z,53.30
2019-04-16T05:42:39.610Z,53.40
2019-04-16T05:43:10.789Z,53.40
2019-04-16T05:43:41.999Z,53.40
2019-04-16T05:44:13.200Z,53.40
2019-04-16T05:44:44.378Z,53.40
2019-04-16T05:45:15.561Z,53.40
2019-04-16T05:45:46.769Z,53.30
2019-04-16T05:46:18.006Z,53.40
2019-04-16T05:46:49.260Z,53.30
2019-04-16T05:47:20.694Z,53.30
2019-04-16T05:47:52.255Z,53.40
2019-04-16T05:48:23.470Z,53.40
2019-04-16T05:48:55.027Z,54.10
2019-04-16T05:49:26.532Z,53.50
2019-04-16T05:49:58.758Z,53.50
2019-04-16T05:50:30.085Z,53.50
2019-04-16T05:51:01.332Z,53.50
2019-04-16T05:51:32.603Z,53.50
2019-04-16T05:52:04.176Z,53.50
2019-04-16T05:52:36.539Z,53.60
2019-04-16T05:53:09.212Z,53.60
2019-04-16T05:53:40.935Z,53.60
2019-04-16T05:54:13.255Z,53.70
2019-04-16T05:54:45.378Z,53.60
2019-04-16T05:55:17.952Z,53.60
2019-04-16T05:55:50.570Z,53.70
2019-04-16T05:56:24.044Z,54.10
2019-04-16T05:56:55.612Z,53.70
2019-04-16T05:57:27.464Z,53.80
2019-04-16T05:57:59.000Z,53.90
2019-04-16T05:58:31.553Z,53.80
2019-04-16T05:59:03.354Z,53.70
2019-04-16T05:59:34.682Z,53.80
2019-04-16T06:00:09.328Z,53.80
2019-04-16T06:00:41.798Z,53.80
2019-04-16T06:01:13.642Z,53.70
2019-04-16T06:01:46.224Z,53.70
2019-04-16T06:02:18.388Z,53.70
2019-04-16T06:02:50.858Z,53.70
2019-04-16T06:03:22.504Z,53.70
2019-04-16T06:03:54.273Z,53.70
2019-04-16T06:04:25.970Z,53.60
2019-04-16T06:04:57.257Z,53.60
2019-04-16T06:05:28.447Z,53.60
2019-04-16T06:05:59.972Z,53.60
2019-04-16T06:06:31.871Z,53.50
2019-04-16T06:07:07.438Z,53.50
2019-04-16T06:07:37.973Z,53.50
2019-04-16T06:08:10.287Z,54.10
2019-04-16T06:08:41.820Z,53.50
2019-04-16T06:09:13.579Z,53.40
2019-04-16T06:09:45.320Z,53.40
2019-04-16T06:10:18.153Z,53.40
2019-04-16T06:10:51.074Z,53.30
2019-04-16T06:11:29.220Z,53.30
2019-04-16T06:11:55.489Z,53.30
2019-04-16T06:12:27.182Z,53.40
2019-04-16T06:12:58.509Z,53.30
2019-04-16T06:13:29.823Z,53.30
2019-04-16T06:14:01.030Z,53.30
2019-04-16T06:14:32.223Z,53.30
2019-04-16T06:15:03.732Z,53.30
2019-04-16T06:15:35.951Z,53.30
2019-04-16T06:16:07.421Z,53.40
2019-04-16T06:16:38.625Z,53.40
2019-04-16T06:17:09.904Z,53.40
2019-04-16T06:17:41.096Z,53.40
2019-04-16T06:18:12.287Z,53.50
2019-04-16T06:18:43.502Z,53.40
2019-04-16T06:19:14.685Z,53.40
2019-04-16T06:19:46.797Z,53.40
2019-04-16T06:20:20.706Z,53.40
2019-04-16T06:20:52.927Z,53.40
2019-04-16T06:21:25.729Z,53.40
2019-04-16T06:21:57.595Z,53.50
2019-04-16T06:22:30.059Z,53.40
2019-04-16T06:23:01.623Z,53.40
2019-04-16T06:23:32.833Z,53.40
2019-04-16T06:24:04.243Z,53.40
2019-04-16T06:24:36.128Z,53.40
2019-04-16T06:25:09.314Z,53.30
2019-04-16T06:25:41.394Z,53.30
2019-04-16T06:26:16.093Z,53.30
2019-04-16T06:26:47.509Z,53.30
2019-04-16T06:27:19.414Z,54.00
2019-04-16T06:27:50.987Z,53.50
2019-04-16T06:28:22.180Z,53.40
2019-04-16T06:28:56.392Z,53.40
2019-04-16T06:29:28.967Z,53.40
2019-04-16T06:30:01.331Z,53.40
2019-04-16T06:30:33.879Z,53.40
2019-04-16T06:31:09.773Z,53.60
2019-04-16T06:31:39.191Z,53.60
2019-04-16T06:32:12.134Z,53.60
2019-04-16T06:32:43.524Z,53.70
2019-04-16T06:33:15.293Z,53.70
2019-04-16T06:33:46.471Z,53.70
2019-04-16T06:34:17.683Z,53.80
2019-04-16T06:34:49.196Z,53.80
2019-04-16T06:35:20.380Z,53.90
2019-04-16T06:35:51.569Z,53.80
2019-04-16T06:36:22.754Z,53.80
2019-04-16T06:36:53.936Z,53.80
2019-04-16T06:37:27.173Z,53.80
2019-04-16T06:37:58.263Z,53.80
2019-04-16T06:38:29.462Z,53.80
2019-04-16T06:39:00.652Z,53.80
2019-04-16T06:39:31.878Z,53.80
2019-04-16T06:40:03.100Z,53.80
2019-04-16T06:40:34.334Z,53.80
2019-04-16T06:41:05.704Z,53.70
2019-04-16T06:41:41.978Z,53.70
2019-04-16T06:42:09.973Z,53.70
2019-04-16T06:42:41.193Z,53.70
2019-04-16T06:43:12.651Z,53.60
2019-04-16T06:43:43.898Z,53.60
2019-04-16T06:44:15.069Z,53.60
2019-04-16T06:44:46.382Z,53.60
2019-04-16T06:45:17.558Z,53.60
2019-04-16T06:45:48.814Z,53.60
2019-04-16T06:46:20.137Z,53.60
2019-04-16T06:46:51.744Z,53.60
2019-04-16T06:47:23.282Z,53.50
2019-04-16T06:47:54.478Z,53.50
2019-04-16T06:48:25.806Z,53.50